Time;durP1;ratioP1;P1;durP2;ratioP2;P2;SDS_P1;SDS_P2;PMS_P1;PMS_P2;Temp;Humidity;BMP_temperature;BMP_pressure;BME280_temperature;BME280_humidity;BME280_pressure;Samples;Min_cycle;Max_cycle;Signal;HPM_P1;HPM_P2
2021/05/23 00:02:18;;;;;;;1.70;0.93;;;;;;;;;;5007946;28;20561;-51
2021/05/23 00:04:45;;;;;;;2.85;1.52;;;;;;;;;;5010897;28;20384;-51
2021/05/23 00:07:13;;;;;;;2.70;1.27;;;;;;;;;;5006691;28;20057;-52
2021/05/23 00:09:40;;;;;;;4.20;1.48;;;;;;;;;;5014144;28;20060;-48
2021/05/23 00:12:13;;;;;;;3.42;1.10;;;;;;;;;;5012907;28;20511;-48
2021/05/23 00:14:40;;;;;;;2.85;1.15;;;;;;;;;;5009173;28;20052;-51
2021/05/23 00:17:07;;;;;;;3.65;1.38;;;;;;;;;;5007110;28;20046;-49
2021/05/23 00:19:34;;;;;;;2.97;1.20;;;;;;;;;;5014727;28;20057;-49
2021/05/23 00:22:01;;;;;;;1.58;0.98;;;;;;;;;;5011624;28;20050;-50
2021/05/23 00:24:28;;;;;;;2.85;1.30;;;;;;;;;;5026760;28;20393;-48
2021/05/23 00:27:04;;;;;;;2.13;1.10;;;;;;;;;;5010758;28;20050;-48
2021/05/23 00:29:31;;;;;;;2.50;1.15;;;;;;;;;;4999054;28;20061;-51
2021/05/23 00:32:07;;;;;;;4.05;1.27;;;;;;;;;;5024774;28;20054;-51
2021/05/23 00:34:34;;;;;;;2.10;1.05;;;;;;;;;;5012580;28;20112;-52
2021/05/23 00:37:01;;;;;;;1.95;1.08;;;;;;;;;;5010420;28;20691;-47
2021/05/23 00:39:28;;;;;;;2.15;1.08;;;;;;;;;;5004532;28;20047;-49
2021/05/23 00:41:55;;;;;;;2.25;1.20;;;;;;;;;;5009893;28;20509;-47
2021/05/23 00:44:21;;;;;;;3.17;1.10;;;;;;;;;;5013078;28;20060;-48
2021/05/23 00:46:48;;;;;;;2.40;1.05;;;;;;;;;;5008610;28;20046;-47
2021/05/23 00:49:15;;;;;;;3.38;1.20;;;;;;;;;;5000916;28;20058;-46
2021/05/23 00:51:42;;;;;;;2.60;1.30;;;;;;;;;;5012320;28;20058;-47
2021/05/23 00:54:09;;;;;;;4.78;1.50;;;;;;;;;;5013450;28;20056;-47
2021/05/23 00:56:36;;;;;;;2.63;1.27;;;;;;;;;;5010231;28;20054;-47
2021/05/23 00:59:03;;;;;;;2.83;1.00;;;;;;;;;;5001567;28;20041;-48
2021/05/23 01:01:36;;;;;;;1.92;1.20;;;;;;;;;;5012119;28;20042;-48
2021/05/23 01:04:02;;;;;;;2.13;1.30;;;;;;;;;;5011208;28;20471;-47
2021/05/23 01:06:31;;;;;;;4.18;1.30;;;;;;;;;;5012152;28;20053;-47
2021/05/23 01:08:58;;;;;;;4.90;1.35;;;;;;;;;;5007620;28;20060;-47
2021/05/23 01:11:28;;;;;;;1.98;1.15;;;;;;;;;;5011341;28;20050;-51
2021/05/23 01:14:00;;;;;;;4.07;1.40;;;;;;;;;;5011813;28;20057;-49
2021/05/23 01:16:39;;;;;;;9.70;1.50;;;;;;;;;;4997622;28;20050;-47
2021/05/23 01:19:12;;;;;;;1.90;1.48;;;;;;;;;;5007198;28;20112;-47
2021/05/23 01:21:40;;;;;;;2.28;1.30;;;;;;;;;;5012121;28;20151;-46
2021/05/23 01:24:17;;;;;;;3.17;1.20;;;;;;;;;;5011827;28;20068;-47
2021/05/23 01:26:52;;;;;;;2.80;1.23;;;;;;;;;;5012612;28;20058;-46
2021/05/23 01:29:20;;;;;;;2.50;1.13;;;;;;;;;;5010057;28;20149;-47
2021/05/23 01:31:47;;;;;;;3.55;1.40;;;;;;;;;;5012731;28;20539;-49
2021/05/23 01:34:17;;;;;;;1.58;0.90;;;;;;;;;;5010802;28;20053;-49
2021/05/23 01:36:45;;;;;;;1.90;1.00;;;;;;;;;;4994059;28;20046;-52
2021/05/23 01:39:13;;;;;;;3.83;1.08;;;;;;;;;;5009643;28;20046;-50
2021/05/23 01:41:40;;;;;;;2.75;1.20;;;;;;;;;;5013744;28;20050;-50
2021/05/23 01:44:08;;;;;;;2.78;1.10;;;;;;;;;;5012628;28;20372;-48
2021/05/23 01:46:36;;;;;;;2.42;1.20;;;;;;;;;;5008221;28;20038;-50
2021/05/23 01:49:03;;;;;;;2.03;1.08;;;;;;;;;;5026189;28;20058;-51
2021/05/23 01:51:30;;;;;;;2.05;1.10;;;;;;;;;;5011123;28;20101;-51
2021/05/23 01:53:59;;;;;;;3.25;1.17;;;;;;;;;;5013207;28;20054;-51
2021/05/23 01:56:26;;;;;;;2.90;1.30;;;;;;;;;;5010363;28;20049;-47
2021/05/23 01:58:53;;;;;;;3.78;1.33;;;;;;;;;;5017728;28;20387;-49
2021/05/23 02:01:22;;;;;;;2.65;1.20;;;;;;;;;;5005458;28;20049;-50
2021/05/23 02:03:48;;;;;;;2.70;1.20;;;;;;;;;;5011221;28;20046;-47
2021/05/23 02:06:15;;;;;;;3.20;1.20;;;;;;;;;;5005733;28;20046;-51
2021/05/23 02:08:43;;;;;;;4.65;1.77;;;;;;;;;;4998706;28;20050;-52
2021/05/23 02:11:09;;;;;;;2.83;1.20;;;;;;;;;;5010955;28;20045;-47
2021/05/23 02:13:37;;;;;;;2.53;1.33;;;;;;;;;;5009150;28;20062;-47
2021/05/23 02:16:05;;;;;;;2.35;1.15;;;;;;;;;;5009094;28;20116;-46
2021/05/23 02:18:32;;;;;;;3.05;1.70;;;;;;;;;;5009609;28;20104;-47
2021/05/23 02:20:59;;;;;;;4.07;1.40;;;;;;;;;;5009412;28;20045;-49
2021/05/23 02:23:26;;;;;;;4.85;1.52;;;;;;;;;;5006492;28;20070;-47
2021/05/23 02:25:53;;;;;;;3.97;1.20;;;;;;;;;;4993156;28;20042;-48
2021/05/23 02:28:21;;;;;;;2.97;1.20;;;;;;;;;;4993863;28;20050;-48
2021/05/23 02:30:49;;;;;;;1.85;1.00;;;;;;;;;;5006570;28;20124;-50
2021/05/23 02:33:17;;;;;;;2.90;1.40;;;;;;;;;;5011675;28;20149;-48
2021/05/23 02:35:45;;;;;;;3.67;1.30;;;;;;;;;;5011814;28;20523;-50
2021/05/23 02:38:12;;;;;;;2.53;1.27;;;;;;;;;;5006857;28;20038;-53
2021/05/23 02:40:40;;;;;;;2.92;1.35;;;;;;;;;;5008166;28;20046;-51
2021/05/23 02:43:07;;;;;;;3.90;1.33;;;;;;;;;;5007998;28;20527;-48
2021/05/23 02:45:35;;;;;;;3.20;1.20;;;;;;;;;;5008704;28;20042;-49
2021/05/23 02:48:06;;;;;;;3.13;1.17;;;;;;;;;;5012038;28;20072;-46
2021/05/23 02:50:35;;;;;;;2.63;1.25;;;;;;;;;;5008669;28;20042;-47
2021/05/23 02:53:05;;;;;;;4.50;1.10;;;;;;;;;;5012122;28;20127;-49
2021/05/23 02:55:32;;;;;;;3.33;1.17;;;;;;;;;;5004507;28;20060;-47
2021/05/23 02:57:59;;;;;;;2.42;1.15;;;;;;;;;;5007546;28;20061;-49
2021/05/23 03:00:26;;;;;;;5.10;1.35;;;;;;;;;;5010854;28;20423;-45
2021/05/23 03:02:53;;;;;;;3.53;1.40;;;;;;;;;;5011284;28;20459;-48
2021/05/23 03:05:21;;;;;;;2.58;1.05;;;;;;;;;;5010597;28;20046;-47
2021/05/23 03:07:50;;;;;;;4.97;1.33;;;;;;;;;;4996487;28;20069;-51
2021/05/23 03:10:20;;;;;;;4.15;1.30;;;;;;;;;;5008067;28;20574;-48
2021/05/23 03:12:47;;;;;;;3.35;1.52;;;;;;;;;;5010016;28;20057;-46
2021/05/23 03:15:16;;;;;;;2.25;1.20;;;;;;;;;;4998039;28;20091;-47
2021/05/23 03:17:43;;;;;;;4.35;1.58;;;;;;;;;;4992018;28;20047;-45
2021/05/23 03:20:12;;;;;;;4.43;1.40;;;;;;;;;;5004339;28;20050;-46
2021/05/23 03:22:40;;;;;;;3.65;1.65;;;;;;;;;;5003367;28;20491;-49
2021/05/23 03:25:08;;;;;;;2.25;1.15;;;;;;;;;;5009582;28;20466;-50
2021/05/23 03:27:35;;;;;;;2.78;1.33;;;;;;;;;;4995233;28;20045;-46
2021/05/23 03:30:03;;;;;;;2.90;1.15;;;;;;;;;;5008992;28;20081;-50
2021/05/23 03:32:30;;;;;;;2.58;1.38;;;;;;;;;;5011882;28;20133;-48
2021/05/23 03:34:57;;;;;;;3.90;1.38;;;;;;;;;;5010139;28;20472;-48
2021/05/23 03:37:24;;;;;;;4.32;1.30;;;;;;;;;;5004328;28;20049;-45
2021/05/23 03:39:51;;;;;;;3.50;1.48;;;;;;;;;;5015267;28;20046;-49
2021/05/23 03:42:18;;;;;;;4.18;1.83;;;;;;;;;;5009708;28;20050;-53
2021/05/23 03:44:45;;;;;;;4.13;1.55;;;;;;;;;;5000621;28;20466;-51
2021/05/23 03:47:12;;;;;;;2.95;1.60;;;;;;;;;;4995740;28;20058;-49
2021/05/23 03:49:39;;;;;;;2.63;1.40;;;;;;;;;;5007713;28;20099;-48
2021/05/23 03:52:08;;;;;;;3.38;1.48;;;;;;;;;;5008384;28;20088;-47
2021/05/23 03:54:35;;;;;;;4.97;1.60;;;;;;;;;;5006527;28;20050;-47
2021/05/23 03:57:02;;;;;;;3.67;1.40;;;;;;;;;;5014786;28;20053;-48
2021/05/23 03:59:29;;;;;;;3.42;1.50;;;;;;;;;;5024620;28;20396;-47
2021/05/23 04:01:56;;;;;;;2.33;1.33;;;;;;;;;;5013395;28;20424;-48
2021/05/23 04:04:23;;;;;;;2.42;1.13;;;;;;;;;;5014708;28;20086;-46
2021/05/23 04:06:50;;;;;;;2.22;1.02;;;;;;;;;;5012722;28;20132;-47
2021/05/23 04:09:20;;;;;;;2.08;1.00;;;;;;;;;;5015078;28;20050;-48
2021/05/23 04:11:50;;;;;;;1.27;0.90;;;;;;;;;;5011657;28;20502;-49
2021/05/23 04:14:17;;;;;;;1.33;0.80;;;;;;;;;;5014312;28;20053;-48
2021/05/23 04:16:44;;;;;;;2.03;0.90;;;;;;;;;;5005729;28;20054;-47
2021/05/23 04:19:11;;;;;;;1.98;0.70;;;;;;;;;;5015150;28;20050;-48
2021/05/23 04:21:38;;;;;;;1.85;0.85;;;;;;;;;;5013794;28;20131;-47
2021/05/23 04:24:04;;;;;;;1.63;0.80;;;;;;;;;;5007828;28;20393;-49
2021/05/23 04:26:31;;;;;;;2.03;0.80;;;;;;;;;;4995553;28;20051;-49
2021/05/23 04:28:58;;;;;;;1.58;1.00;;;;;;;;;;5007424;28;20471;-49
2021/05/23 04:31:25;;;;;;;1.85;0.60;;;;;;;;;;5015088;28;20061;-46
2021/05/23 04:33:52;;;;;;;0.70;0.70;;;;;;;;;;5010267;28;20503;-46
2021/05/23 04:36:18;;;;;;;0.57;0.57;;;;;;;;;;5014422;28;20388;-52
2021/05/23 04:38:45;;;;;;;1.20;0.77;;;;;;;;;;5003122;28;20101;-45
2021/05/23 04:41:14;;;;;;;2.05;0.73;;;;;;;;;;5012492;28;20066;-48
2021/05/23 04:43:40;;;;;;;1.00;0.60;;;;;;;;;;5012923;28;20057;-47
2021/05/23 04:46:12;;;;;;;3.80;0.80;;;;;;;;;;5013542;28;20125;-51
2021/05/23 04:48:39;;;;;;;0.55;0.50;;;;;;;;;;4995111;28;20062;-48
2021/05/23 04:51:06;;;;;;;2.83;0.60;;;;;;;;;;5009101;28;20061;-49
2021/05/23 04:53:32;;;;;;;2.33;0.88;;;;;;;;;;5012800;28;20503;-45
2021/05/23 04:55:59;;;;;;;1.05;0.55;;;;;;;;;;5011597;28;20066;-49
2021/05/23 04:58:26;;;;;;;0.70;0.50;;;;;;;;;;5005801;28;20096;-50
2021/05/23 05:00:53;;;;;;;0.85;0.60;;;;;;;;;;5001701;28;20050;-48
2021/05/23 05:03:20;;;;;;;1.10;0.60;;;;;;;;;;5011734;28;20076;-51
2021/05/23 05:05:46;;;;;;;2.67;0.52;;;;;;;;;;5013165;28;20050;-50
2021/05/23 05:08:16;;;;;;;3.13;0.60;;;;;;;;;;5001059;28;20042;-47
2021/05/23 05:10:43;;;;;;;0.70;0.63;;;;;;;;;;5005851;28;20462;-48
2021/05/23 05:13:10;;;;;;;1.10;0.63;;;;;;;;;;5010076;28;20057;-49
2021/05/23 05:15:37;;;;;;;1.83;0.70;;;;;;;;;;5011348;28;20132;-45
2021/05/23 05:18:04;;;;;;;0.40;0.40;;;;;;;;;;4994038;28;20054;-48
2021/05/23 05:20:30;;;;;;;0.73;0.50;;;;;;;;;;5007848;28;20038;-50
2021/05/23 05:22:58;;;;;;;0.75;0.50;;;;;;;;;;5012036;28;20037;-48
2021/05/23 05:25:25;;;;;;;0.70;0.52;;;;;;;;;;5006588;28;20492;-48
2021/05/23 05:27:51;;;;;;;0.30;0.30;;;;;;;;;;4995559;28;20514;-48
2021/05/23 05:30:19;;;;;;;1.80;0.50;;;;;;;;;;5012280;28;20054;-48
2021/05/23 05:32:45;;;;;;;1.67;0.65;;;;;;;;;;5010336;28;20511;-48
2021/05/23 05:35:12;;;;;;;0.40;0.40;;;;;;;;;;4999410;28;20120;-48
2021/05/23 05:37:39;;;;;;;0.88;0.60;;;;;;;;;;5006643;28;20495;-47
2021/05/23 05:40:07;;;;;;;0.75;0.35;;;;;;;;;;5002487;28;20116;-48
2021/05/23 05:42:33;;;;;;;1.35;0.40;;;;;;;;;;5007981;28;20050;-48
2021/05/23 05:45:00;;;;;;;0.52;0.40;;;;;;;;;;5009293;28;20117;-50
2021/05/23 05:47:27;;;;;;;0.30;0.30;;;;;;;;;;4993308;28;20051;-47
2021/05/23 05:49:55;;;;;;;0.70;0.47;;;;;;;;;;5012211;28;20057;-48
2021/05/23 05:52:21;;;;;;;0.68;0.30;;;;;;;;;;5012028;28;20054;-47
2021/05/23 05:54:48;;;;;;;0.60;0.30;;;;;;;;;;5010788;28;21916;-50
2021/05/23 05:57:15;;;;;;;0.63;0.50;;;;;;;;;;5012740;28;20104;-49
2021/05/23 05:59:44;;;;;;;0.20;0.20;;;;;;;;;;5000198;28;20504;-52
2021/05/23 06:02:11;;;;;;;0.30;0.30;;;;;;;;;;5011012;28;20062;-49
2021/05/23 06:04:38;;;;;;;0.85;0.30;;;;;;;;;;5011430;28;20104;-49
2021/05/23 06:07:05;;;;;;;0.30;0.20;;;;;;;;;;5002526;28;20050;-51
2021/05/23 06:09:31;;;;;;;0.40;0.40;;;;;;;;;;4993168;28;20164;-48
2021/05/23 06:11:58;;;;;;;0.30;0.30;;;;;;;;;;5022762;28;20073;-50
2021/05/23 06:14:25;;;;;;;0.65;0.30;;;;;;;;;;5006825;28;20076;-49
2021/05/23 06:16:52;;;;;;;0.30;0.22;;;;;;;;;;5008913;28;20399;-49
2021/05/23 06:19:19;;;;;;;1.13;0.45;;;;;;;;;;5012552;28;20049;-47
2021/05/23 06:21:45;;;;;;;0.28;0.28;;;;;;;;;;5010811;28;20046;-51
2021/05/23 06:24:12;;;;;;;2.42;0.40;;;;;;;;;;4996443;28;20046;-50
2021/05/23 06:26:39;;;;;;;0.35;0.25;;;;;;;;;;5006622;28;20065;-50
2021/05/23 06:29:06;;;;;;;1.08;0.30;;;;;;;;;;5000652;28;20050;-50
2021/05/23 06:31:33;;;;;;;2.05;0.50;;;;;;;;;;5007617;28;20065;-49
2021/05/23 06:34:00;;;;;;;1.88;0.40;;;;;;;;;;5011303;28;20053;-52
2021/05/23 06:36:27;;;;;;;0.55;0.40;;;;;;;;;;5008840;28;20499;-50
2021/05/23 06:38:53;;;;;;;2.63;0.50;;;;;;;;;;5011770;28;20054;-50
2021/05/23 06:41:20;;;;;;;0.40;0.40;;;;;;;;;;5013751;28;20284;-48
2021/05/23 06:43:47;;;;;;;1.63;0.47;;;;;;;;;;5007126;28;20054;-46
2021/05/23 06:46:14;;;;;;;0.38;0.30;;;;;;;;;;5002199;28;20121;-49
2021/05/23 06:48:41;;;;;;;0.60;0.40;;;;;;;;;;5011479;28;20454;-46
2021/05/23 06:51:08;;;;;;;0.43;0.40;;;;;;;;;;5008572;28;20133;-45
2021/05/23 06:53:35;;;;;;;1.27;0.50;;;;;;;;;;5011707;28;20507;-45
2021/05/23 06:56:01;;;;;;;0.45;0.40;;;;;;;;;;5011144;28;20148;-45
2021/05/23 06:58:28;;;;;;;0.70;0.35;;;;;;;;;;5004787;28;20046;-47
2021/05/23 07:00:55;;;;;;;0.73;0.30;;;;;;;;;;5003990;28;20145;-45
2021/05/23 07:03:22;;;;;;;0.52;0.40;;;;;;;;;;5011415;28;20177;-46
2021/05/23 07:05:49;;;;;;;0.40;0.30;;;;;;;;;;5009735;28;20045;-46
2021/05/23 07:08:18;;;;;;;0.65;0.43;;;;;;;;;;5002252;28;20057;-48
2021/05/23 07:10:44;;;;;;;0.40;0.30;;;;;;;;;;4998843;28;20140;-50
2021/05/23 07:13:11;;;;;;;0.45;0.30;;;;;;;;;;5009482;28;20132;-47
2021/05/23 07:15:38;;;;;;;1.15;0.40;;;;;;;;;;5007284;28;20050;-50
2021/05/23 07:18:05;;;;;;;0.40;0.30;;;;;;;;;;4999648;28;20476;-48
2021/05/23 07:20:32;;;;;;;0.70;0.30;;;;;;;;;;5010739;28;20042;-46
2021/05/23 07:22:59;;;;;;;1.13;0.40;;;;;;;;;;5011927;28;20060;-46
2021/05/23 07:25:25;;;;;;;0.43;0.40;;;;;;;;;;4996782;28;20057;-48
2021/05/23 07:27:53;;;;;;;1.17;0.38;;;;;;;;;;4991549;28;20047;-46
2021/05/23 07:30:20;;;;;;;1.10;0.50;;;;;;;;;;5000393;28;20081;-48
2021/05/23 07:32:47;;;;;;;0.52;0.40;;;;;;;;;;5011876;28;20112;-47
2021/05/23 07:35:15;;;;;;;1.60;0.50;;;;;;;;;;5009932;28;20517;-47
2021/05/23 07:37:41;;;;;;;0.55;0.50;;;;;;;;;;5004571;28;20065;-48
2021/05/23 07:40:09;;;;;;;0.40;0.40;;;;;;;;;;5012063;28;20045;-51
2021/05/23 07:42:35;;;;;;;0.52;0.50;;;;;;;;;;5010747;28;20451;-52
2021/05/23 07:45:03;;;;;;;0.75;0.50;;;;;;;;;;5001316;28;20046;-49
2021/05/23 07:47:30;;;;;;;0.60;0.40;;;;;;;;;;5009717;28;20050;-49
2021/05/23 07:49:57;;;;;;;1.60;0.80;;;;;;;;;;5013794;28;20097;-49
2021/05/23 07:52:24;;;;;;;1.30;0.80;;;;;;;;;;5010376;28;20053;-50
2021/05/23 07:54:51;;;;;;;1.00;0.60;;;;;;;;;;5005869;28;20188;-46
2021/05/23 07:57:18;;;;;;;0.70;0.50;;;;;;;;;;5010114;28;20046;-52
2021/05/23 07:59:45;;;;;;;1.58;0.70;;;;;;;;;;5010385;28;20046;-50
2021/05/23 08:02:12;;;;;;;1.15;0.47;;;;;;;;;;5011590;28;20049;-49
2021/05/23 08:04:39;;;;;;;1.23;0.60;;;;;;;;;;5010138;28;20049;-51
2021/05/23 08:07:05;;;;;;;0.70;0.70;;;;;;;;;;5010658;28;20046;-48
2021/05/23 08:09:32;;;;;;;1.27;0.80;;;;;;;;;;5009947;28;20092;-45
2021/05/23 08:11:59;;;;;;;1.83;0.60;;;;;;;;;;5009985;28;20553;-50
2021/05/23 08:14:26;;;;;;;1.17;0.73;;;;;;;;;;5010312;28;20045;-51
2021/05/23 08:16:53;;;;;;;0.75;0.60;;;;;;;;;;5002980;28;20565;-48
2021/05/23 08:19:20;;;;;;;0.98;0.70;;;;;;;;;;5010726;28;20054;-55
2021/05/23 08:21:47;;;;;;;0.40;0.40;;;;;;;;;;5009800;28;20060;-53
2021/05/23 08:24:14;;;;;;;1.08;0.50;;;;;;;;;;5010322;28;20096;-49
2021/05/23 08:26:41;;;;;;;0.90;0.40;;;;;;;;;;5007654;28;20042;-49
2021/05/23 08:29:08;;;;;;;1.23;0.57;;;;;;;;;;5011852;28;20060;-54
2021/05/23 08:31:35;;;;;;;0.88;0.60;;;;;;;;;;5018416;28;20061;-49
2021/05/23 08:34:02;;;;;;;2.05;0.70;;;;;;;;;;5012857;28;20526;-54
2021/05/23 08:36:29;;;;;;;1.15;0.60;;;;;;;;;;5010093;28;20062;-52
2021/05/23 08:38:56;;;;;;;1.25;0.60;;;;;;;;;;5004647;28;20053;-53
2021/05/23 08:41:22;;;;;;;1.33;0.70;;;;;;;;;;5014765;28;20057;-55
2021/05/23 08:43:50;;;;;;;0.68;0.57;;;;;;;;;;5012820;28;20443;-53
2021/05/23 08:46:18;;;;;;;1.55;0.50;;;;;;;;;;5007451;28;20045;-56
2021/05/23 08:48:45;;;;;;;0.63;0.50;;;;;;;;;;5013596;28;20057;-54
2021/05/23 08:51:12;;;;;;;1.13;0.70;;;;;;;;;;5013049;28;20448;-53
2021/05/23 08:53:39;;;;;;;1.58;0.70;;;;;;;;;;5011789;28;20042;-55
2021/05/23 08:56:06;;;;;;;2.88;1.00;;;;;;;;;;5012119;28;20042;-50
2021/05/23 08:58:33;;;;;;;1.92;0.90;;;;;;;;;;5005519;28;20050;-51
2021/05/23 09:01:00;;;;;;;2.08;1.00;;;;;;;;;;5010264;28;20080;-53
2021/05/23 09:03:27;;;;;;;1.23;0.80;;;;;;;;;;5000608;28;20038;-50
2021/05/23 09:05:55;;;;;;;2.83;0.95;;;;;;;;;;5014036;28;20057;-52
2021/05/23 09:08:28;;;;;;;1.15;0.70;;;;;;;;;;5008268;28;20467;-52
2021/05/23 09:10:58;;;;;;;2.65;0.80;;;;;;;;;;5013095;28;20419;-52
2021/05/23 09:13:27;;;;;;;3.30;0.90;;;;;;;;;;5014405;28;20064;-53
2021/05/23 09:16:10;;;;;;;2.55;1.00;;;;;;;;;;5010153;28;20503;-52
2021/05/23 09:18:40;;;;;;;2.20;0.77;;;;;;;;;;5010971;28;20049;-53
2021/05/23 09:21:07;;;;;;;4.15;0.70;;;;;;;;;;5013756;28;20499;-53
2021/05/23 09:23:54;;;;;;;1.13;0.82;;;;;;;;;;5012896;28;20495;-50
2021/05/23 09:26:25;;;;;;;2.33;0.80;;;;;;;;;;5002488;28;20050;-53
2021/05/23 09:28:53;;;;;;;2.78;0.70;;;;;;;;;;4994383;28;20500;-52
2021/05/23 09:31:21;;;;;;;1.85;0.80;;;;;;;;;;4994261;28;20050;-51
2021/05/23 09:33:52;;;;;;;2.67;1.30;;;;;;;;;;4994644;28;20058;-54
2021/05/23 09:36:20;;;;;;;3.00;0.90;;;;;;;;;;4994298;28;20113;-50
2021/05/23 09:38:54;;;;;;;1.25;0.70;;;;;;;;;;4993868;28;20097;-54
2021/05/23 09:41:25;;;;;;;2.65;0.98;;;;;;;;;;4993706;28;20062;-53
2021/05/23 09:44:11;;;;;;;1.25;0.70;;;;;;;;;;4994089;28;20043;-51
2021/05/23 09:46:50;;;;;;;2.03;0.80;;;;;;;;;;4993604;28;20054;-52
2021/05/23 09:49:19;;;;;;;2.08;0.70;;;;;;;;;;4993892;28;20077;-50
2021/05/23 09:52:15;;;;;;;3.10;1.58;;;;;;;;;;4993817;28;20058;-50
2021/05/23 09:54:53;;;;;;;2.13;0.90;;;;;;;;;;4993542;28;20054;-54
2021/05/23 09:57:21;;;;;;;1.45;0.80;;;;;;;;;;4993525;28;20055;-51
2021/05/23 10:00:01;;;;;;;2.38;1.42;;;;;;;;;;5008518;28;20166;-53
2021/05/23 10:02:33;;;;;;;2.20;1.23;;;;;;;;;;4993749;28;20130;-53
2021/05/23 10:05:12;;;;;;;2.28;0.90;;;;;;;;;;4993571;28;20062;-51
2021/05/23 10:07:38;;;;;;;3.05;1.13;;;;;;;;;;5008137;28;20062;-51
2021/05/23 10:10:07;;;;;;;2.85;0.90;;;;;;;;;;4993708;28;20575;-52
2021/05/23 10:12:35;;;;;;;2.47;0.90;;;;;;;;;;4993754;28;20129;-50
2021/05/23 10:15:04;;;;;;;2.22;0.90;;;;;;;;;;4993209;28;20077;-50
2021/05/23 10:17:51;;;;;;;2.53;0.80;;;;;;;;;;4992885;28;20054;-52
2021/05/23 10:20:18;;;;;;;2.38;0.95;;;;;;;;;;4993600;28;20096;-51
2021/05/23 10:22:45;;;;;;;3.70;1.88;;;;;;;;;;4993443;28;20050;-51
2021/05/23 10:25:13;;;;;;;2.20;1.00;;;;;;;;;;4993092;28;20408;-51
2021/05/23 10:27:41;;;;;;;3.55;1.05;;;;;;;;;;4992552;28;20053;-52
2021/05/23 10:30:09;;;;;;;1.42;0.90;;;;;;;;;;5010994;28;20096;-53
2021/05/23 10:32:37;;;;;;;2.55;1.10;;;;;;;;;;5012724;28;20129;-52
2021/05/23 10:35:13;;;;;;;6.45;1.02;;;;;;;;;;5010899;28;20057;-49
2021/05/23 10:37:42;;;;;;;1.77;0.95;;;;;;;;;;5011954;28;20090;-50
2021/05/23 10:40:17;;;;;;;1.77;1.00;;;;;;;;;;4994785;28;20138;-48
2021/05/23 10:42:48;;;;;;;4.00;1.10;;;;;;;;;;4992893;28;20054;-51
2021/05/23 10:45:32;;;;;;;1.95;0.90;;;;;;;;;;5007755;28;20050;-54
2021/05/23 10:48:12;;;;;;;1.80;1.05;;;;;;;;;;4992229;28;20050;-52
2021/05/23 10:50:39;;;;;;;1.60;1.00;;;;;;;;;;4992581;28;20417;-49
2021/05/23 10:53:06;;;;;;;1.50;0.90;;;;;;;;;;5007636;28;20054;-53
2021/05/23 10:55:34;;;;;;;2.90;0.70;;;;;;;;;;4992676;28;20138;-49
2021/05/23 10:58:01;;;;;;;2.15;1.00;;;;;;;;;;4992113;28;20080;-51
2021/05/23 11:00:31;;;;;;;1.02;0.70;;;;;;;;;;4992507;28;20113;-48
2021/05/23 11:03:10;;;;;;;1.08;0.82;;;;;;;;;;4992276;28;20065;-47
2021/05/23 11:05:37;;;;;;;1.30;0.70;;;;;;;;;;4992541;28;20051;-49
2021/05/23 11:08:05;;;;;;;0.93;0.73;;;;;;;;;;4991913;28;20050;-49
2021/05/23 11:10:32;;;;;;;2.45;1.02;;;;;;;;;;4992586;28;20058;-50
2021/05/23 11:13:00;;;;;;;1.08;0.70;;;;;;;;;;4992396;28;20052;-48
2021/05/23 11:15:43;;;;;;;1.73;0.70;;;;;;;;;;4992457;28;20081;-53
2021/05/23 11:18:13;;;;;;;3.90;1.08;;;;;;;;;;4991741;28;20512;-53
2021/05/23 11:20:42;;;;;;;1.65;0.70;;;;;;;;;;4992319;28;20077;-48
2021/05/23 11:23:09;;;;;;;2.08;1.00;;;;;;;;;;4992344;28;20419;-58
2021/05/23 11:25:37;;;;;;;1.60;0.70;;;;;;;;;;4992317;28;20046;-58
2021/05/23 11:28:08;;;;;;;1.48;0.60;;;;;;;;;;4992128;28;20046;-56
2021/05/23 11:30:38;;;;;;;1.17;0.68;;;;;;;;;;4992462;28;20064;-53
2021/05/23 11:33:06;;;;;;;3.15;1.58;;;;;;;;;;4992291;28;20082;-54
2021/05/23 11:35:35;;;;;;;1.05;0.70;;;;;;;;;;4992269;28;20061;-58
2021/05/23 11:38:03;;;;;;;2.05;0.75;;;;;;;;;;4991713;28;20074;-58
2021/05/23 11:40:37;;;;;;;1.77;0.80;;;;;;;;;;4992529;28;20042;-56
2021/05/23 11:43:07;;;;;;;1.30;0.77;;;;;;;;;;4992081;28;20054;-58
2021/05/23 11:45:34;;;;;;;1.65;1.10;;;;;;;;;;4992089;28;20042;-58
2021/05/23 11:48:04;;;;;;;1.95;0.63;;;;;;;;;;4991947;28;20058;-56
2021/05/23 11:50:31;;;;;;;2.30;0.90;;;;;;;;;;4992362;28;20122;-57
2021/05/23 11:52:59;;;;;;;1.90;0.70;;;;;;;;;;4992178;28;20101;-55
2021/05/23 11:55:27;;;;;;;1.73;0.90;;;;;;;;;;4992095;28;20068;-58
2021/05/23 11:58:11;;;;;;;1.27;0.60;;;;;;;;;;4991732;28;20138;-56
2021/05/23 12:00:38;;;;;;;1.70;0.60;;;;;;;;;;4992253;28;20053;-56
2021/05/23 12:03:05;;;;;;;1.45;0.68;;;;;;;;;;4993390;28;20443;-55
2021/05/23 12:05:50;;;;;;;1.42;0.60;;;;;;;;;;4996019;28;20109;-57
2021/05/23 12:08:21;;;;;;;0.90;0.60;;;;;;;;;;4995535;28;20057;-53
2021/05/23 12:11:04;;;;;;;2.58;1.35;;;;;;;;;;4995809;28;20500;-56
2021/05/23 12:13:44;;;;;;;2.08;0.60;;;;;;;;;;4996200;28;20113;-58
2021/05/23 12:16:12;;;;;;;1.85;0.60;;;;;;;;;;4995754;28;20567;-55
2021/05/23 12:18:46;;;;;;;1.17;0.60;;;;;;;;;;4995257;28;20058;-54
2021/05/23 12:21:14;;;;;;;2.67;0.50;;;;;;;;;;4995635;28;20055;-54
2021/05/23 12:23:42;;;;;;;0.88;0.50;;;;;;;;;;4995387;28;20133;-54
2021/05/23 12:26:13;;;;;;;1.63;0.52;;;;;;;;;;4995571;28;20058;-53
2021/05/23 12:28:43;;;;;;;3.13;0.75;;;;;;;;;;4995603;28;20069;-53
2021/05/23 12:31:10;;;;;;;4.85;2.67;;;;;;;;;;4995559;28;20050;-56
2021/05/23 12:33:38;;;;;;;1.98;0.73;;;;;;;;;;4995243;28;20054;-56
2021/05/23 12:36:05;;;;;;;1.92;0.57;;;;;;;;;;4994073;28;20532;-56
2021/05/23 12:38:32;;;;;;;0.57;0.40;;;;;;;;;;4994783;28;20117;-53
2021/05/23 12:40:59;;;;;;;1.08;0.60;;;;;;;;;;4995230;28;20097;-53
2021/05/23 12:43:28;;;;;;;3.05;0.90;;;;;;;;;;4995036;28;20050;-53
2021/05/23 12:45:55;;;;;;;1.27;0.38;;;;;;;;;;4994966;28;20077;-51
2021/05/23 12:48:29;;;;;;;1.52;0.80;;;;;;;;;;4994693;28;20108;-52
2021/05/23 12:50:57;;;;;;;2.80;0.93;;;;;;;;;;4994946;28;20054;-48
2021/05/23 12:53:25;;;;;;;4.95;0.70;;;;;;;;;;4994982;28;20058;-49
2021/05/23 12:55:54;;;;;;;0.80;0.50;;;;;;;;;;4994697;28;20058;-53
2021/05/23 12:58:21;;;;;;;1.65;0.52;;;;;;;;;;4994347;28;20054;-53
2021/05/23 13:00:49;;;;;;;1.63;0.77;;;;;;;;;;4994564;28;20051;-52
2021/05/23 13:03:17;;;;;;;4.05;0.63;;;;;;;;;;4994650;28;20412;-53
2021/05/23 13:05:51;;;;;;;1.23;0.43;;;;;;;;;;4994477;28;20478;-52
2021/05/23 13:08:18;;;;;;;0.70;0.40;;;;;;;;;;4994305;28;20050;-51
2021/05/23 13:10:45;;;;;;;1.13;0.50;;;;;;;;;;4994664;28;20149;-51
2021/05/23 13:13:12;;;;;;;2.15;0.63;;;;;;;;;;5009498;28;20049;-53
2021/05/23 13:15:39;;;;;;;1.65;0.55;;;;;;;;;;4994032;28;20097;-50
2021/05/23 13:18:06;;;;;;;1.55;0.55;;;;;;;;;;4994332;28;20064;-49
2021/05/23 13:20:37;;;;;;;1.15;0.60;;;;;;;;;;4994090;28;20066;-53
2021/05/23 13:23:05;;;;;;;2.00;0.80;;;;;;;;;;4994487;28;20046;-52
2021/05/23 13:25:33;;;;;;;2.35;0.70;;;;;;;;;;4994457;28;20102;-55
2021/05/23 13:27:59;;;;;;;1.20;0.55;;;;;;;;;;4993825;28;20054;-49
2021/05/23 13:30:28;;;;;;;1.25;0.40;;;;;;;;;;4994072;28;20540;-51
2021/05/23 13:32:56;;;;;;;2.25;0.70;;;;;;;;;;4992797;28;20116;-51
2021/05/23 13:35:24;;;;;;;1.75;0.60;;;;;;;;;;4993809;28;20099;-48
2021/05/23 13:37:52;;;;;;;0.82;0.43;;;;;;;;;;4992116;28;20531;-50
2021/05/23 13:40:19;;;;;;;0.47;0.40;;;;;;;;;;4993941;28;20054;-49
2021/05/23 13:42:48;;;;;;;2.20;0.73;;;;;;;;;;4993693;28;20057;-53
2021/05/23 13:45:16;;;;;;;1.20;0.50;;;;;;;;;;4997853;28;20065;-54
2021/05/23 13:47:47;;;;;;;1.75;0.40;;;;;;;;;;5027765;28;20056;-51
2021/05/23 13:50:15;;;;;;;2.83;0.60;;;;;;;;;;5011994;28;20050;-53
2021/05/23 13:52:43;;;;;;;1.08;0.47;;;;;;;;;;5009897;28;20042;-51
2021/05/23 13:55:11;;;;;;;1.83;0.85;;;;;;;;;;4993545;28;20054;-56
2021/05/23 13:57:47;;;;;;;1.30;0.40;;;;;;;;;;4993139;28;20046;-51
2021/05/23 14:00:20;;;;;;;1.67;0.60;;;;;;;;;;4993542;28;20097;-51
2021/05/23 14:02:46;;;;;;;2.58;0.52;;;;;;;;;;4993517;28;20054;-57
2021/05/23 14:05:13;;;;;;;0.77;0.50;;;;;;;;;;4993596;28;20058;-53
2021/05/23 14:07:40;;;;;;;3.45;0.50;;;;;;;;;;4975716;28;20046;-54
2021/05/23 14:10:07;;;;;;;1.42;0.50;;;;;;;;;;5023772;23;20498;-48
2021/05/23 14:12:34;;;;;;;2.03;0.40;;;;;;;;;;5030669;28;20056;-50
2021/05/23 14:15:01;;;;;;;1.30;0.70;;;;;;;;;;5031809;28;20053;-48
2021/05/23 14:17:28;;;;;;;0.93;0.52;;;;;;;;;;5020813;28;20062;-46
2021/05/23 14:19:55;;;;;;;1.25;0.60;;;;;;;;;;5012022;28;20565;-53
2021/05/23 14:22:22;;;;;;;1.08;0.63;;;;;;;;;;5011886;28;20053;-47
2021/05/23 14:24:49;;;;;;;3.17;0.75;;;;;;;;;;5011816;28;20388;-51
2021/05/23 14:27:16;;;;;;;2.40;0.57;;;;;;;;;;5030141;28;20127;-49
2021/05/23 14:29:42;;;;;;;3.42;0.70;;;;;;;;;;5014180;28;20060;-49
2021/05/23 14:32:09;;;;;;;1.27;0.55;;;;;;;;;;5010715;28;20145;-51
2021/05/23 14:34:36;;;;;;;1.00;0.45;;;;;;;;;;5011780;28;20058;-51
2021/05/23 14:37:03;;;;;;;2.53;0.80;;;;;;;;;;5010710;28;20065;-48
2021/05/23 14:39:31;;;;;;;1.23;0.57;;;;;;;;;;5011711;28;20050;-52
2021/05/23 14:41:58;;;;;;;1.13;0.50;;;;;;;;;;5011371;28;20046;-52
2021/05/23 14:44:25;;;;;;;2.35;0.60;;;;;;;;;;5011653;28;20064;-48
2021/05/23 14:46:52;;;;;;;0.82;0.63;;;;;;;;;;5009442;28;20046;-47
2021/05/23 14:49:18;;;;;;;0.60;0.50;;;;;;;;;;5010333;28;20046;-47
2021/05/23 14:51:46;;;;;;;3.05;0.60;;;;;;;;;;5011384;28;20057;-50